createdAt,value
2019-01-05T00:01:07.488Z,1.40
2019-01-05T00:04:05.105Z,2.23
2019-01-05T00:07:05.005Z,2.43
2019-01-05T00:10:05.916Z,2.10
2019-01-05T00:13:03.818Z,2.40
2019-01-05T00:16:04.005Z,2.93
2019-01-05T00:19:10.269Z,2.93
2019-01-05T00:22:10.677Z,2.53
2019-01-05T00:25:10.670Z,3.07
2019-01-05T00:28:10.282Z,2.47
2019-01-05T00:31:09.163Z,1.97
2019-01-05T00:34:08.942Z,2.33
2019-01-05T00:37:08.893Z,2.03
2019-01-05T00:43:24.485Z,1.70
2019-01-05T00:46:24.591Z,1.50
2019-01-05T00:49:24.725Z,1.90
2019-01-05T00:52:24.521Z,1.83
2019-01-05T00:55:24.390Z,1.90
2019-01-05T00:58:24.712Z,1.93
2019-01-05T01:01:24.834Z,2.30
2019-01-05T01:04:27.856Z,2.03
2019-01-05T01:07:41.484Z,1.83
2019-01-05T01:10:36.707Z,1.83
2019-01-05T01:13:44.208Z,2.30
2019-01-05T01:16:46.810Z,1.70
2019-01-05T01:19:46.472Z,1.70
2019-01-05T01:22:46.255Z,1.37
2019-01-05T01:25:53.520Z,1.80
2019-01-05T01:28:43.028Z,1.30
2019-01-05T01:31:46.372Z,1.60
2019-01-05T01:37:36.643Z,2.43
2019-01-05T01:40:43.938Z,3.07
2019-01-05T01:43:45.555Z,2.90
2019-01-05T01:46:38.647Z,2.70
2019-01-05T01:49:38.169Z,2.27
2019-01-05T01:52:39.777Z,1.70
2019-01-05T01:55:39.942Z,1.80
2019-01-05T01:58:40.409Z,1.70
2019-01-05T02:01:39.931Z,3.03
2019-01-05T02:04:40.177Z,3.50
2019-01-05T02:07:39.118Z,3.17
2019-01-05T02:10:38.601Z,3.80
2019-01-05T02:13:44.147Z,2.43
2019-01-05T02:16:44.465Z,2.10
2019-01-05T02:19:44.522Z,2.00
2019-01-05T02:22:44.172Z,1.83
2019-01-05T02:25:45.326Z,2.23
2019-01-05T02:32:04.505Z,1.90
2019-01-05T02:35:04.586Z,2.00
2019-01-05T02:38:04.696Z,1.03
2019-01-05T02:41:04.858Z,1.03
2019-01-05T02:44:04.669Z,0.67
2019-01-05T02:47:10.588Z,1.20
2019-01-05T02:50:10.299Z,1.50
2019-01-05T02:53:03.235Z,1.70
2019-01-05T02:56:50.305Z,1.47
2019-01-05T03:00:25.021Z,1.63
2019-01-05T03:03:48.525Z,1.50
2019-01-05T03:07:32.408Z,0.97
2019-01-05T03:10:58.889Z,1.27
2019-01-05T03:14:23.821Z,1.50
2019-01-05T03:17:48.173Z,1.80
2019-01-05T03:21:26.033Z,1.33
2019-01-05T03:24:58.101Z,1.17
2019-01-05T03:28:23.597Z,1.57
2019-01-05T03:31:49.992Z,1.20
2019-01-05T03:35:13.431Z,1.30
2019-01-05T03:38:44.213Z,1.93
2019-01-05T03:42:24.080Z,2.33
2019-01-05T03:46:09.594Z,2.23
2019-01-05T03:49:44.160Z,1.20
2019-01-05T03:53:06.222Z,0.93
2019-01-05T03:56:40.646Z,1.73
2019-01-05T04:00:16.537Z,2.57
2019-01-05T04:03:39.598Z,2.43
2019-01-05T04:06:52.283Z,2.83
2019-01-05T04:10:27.128Z,3.20
2019-01-05T04:14:00.297Z,2.07
2019-01-05T04:17:36.727Z,2.53
2019-01-05T04:20:58.425Z,2.30
2019-01-05T04:24:22.356Z,2.87
2019-01-05T04:28:14.171Z,2.30
2019-01-05T04:31:47.249Z,2.60
2019-01-05T04:35:13.857Z,2.43
2019-01-05T04:39:09.221Z,1.50
2019-01-05T04:42:50.190Z,1.37
2019-01-05T04:46:19.479Z,1.53
2019-01-05T04:49:35.102Z,2.90
2019-01-05T04:52:58.347Z,2.37
2019-01-05T04:56:43.435Z,2.40
2019-01-05T05:00:24.660Z,2.40
2019-01-05T05:03:41.414Z,1.63
2019-01-05T05:07:15.190Z,1.37
2019-01-05T05:11:07.453Z,1.20
2019-01-05T05:14:38.461Z,2.30
2019-01-05T05:17:53.355Z,2.40
2019-01-05T05:21:27.400Z,1.97
2019-01-05T05:25:03.398Z,1.80
2019-01-05T05:28:26.887Z,2.00
2019-01-05T05:32:08.559Z,1.43
2019-01-05T05:35:31.982Z,1.40
2019-01-05T05:39:05.349Z,1.70
2019-01-05T05:42:52.234Z,1.80
2019-01-05T05:45:55.460Z,2.27
2019-01-05T05:49:29.015Z,1.70
2019-01-05T05:52:59.310Z,2.13
2019-01-05T05:56:28.795Z,1.60
2019-01-05T05:59:55.851Z,1.47
2019-01-05T06:03:04.398Z,1.37
2019-01-05T06:06:30.030Z,1.23
2019-01-05T06:10:08.730Z,1.70
2019-01-05T06:13:40.669Z,1.60
2019-01-05T06:17:09.902Z,1.57
2019-01-05T06:20:36.782Z,0.80
2019-01-05T06:24:09.720Z,1.10
2019-01-05T06:27:23.004Z,1.50
2019-01-05T06:31:05.448Z,2.00
2019-01-05T06:34:32.280Z,2.10
2019-01-05T06:37:40.506Z,1.90
2019-01-05T06:41:11.067Z,0.90
2019-01-05T06:44:22.606Z,2.10
2019-01-05T06:47:54.722Z,2.33
2019-01-05T06:51:31.590Z,2.40
2019-01-05T06:55:26.454Z,1.93
2019-01-05T06:58:40.153Z,2.13
2019-01-05T07:02:09.963Z,2.20
2019-01-05T07:05:42.131Z,3.40
2019-01-05T07:09:20.508Z,3.50
2019-01-05T07:12:35.645Z,3.13
2019-01-05T07:15:43.829Z,3.60
2019-01-05T07:19:12.691Z,3.83
2019-01-05T07:22:28.328Z,2.87
2019-01-05T07:25:59.087Z,2.60
2019-01-05T07:29:21.626Z,3.17
2019-01-05T07:32:53.101Z,4.63
2019-01-05T07:36:20.934Z,4.20
2019-01-05T07:39:54.590Z,3.80
2019-01-05T07:43:24.702Z,5.17
2019-01-05T07:47:13.650Z,1.87
2019-01-05T07:51:03.237Z,3.77
2019-01-05T07:54:41.840Z,5.33
2019-01-05T07:58:17.502Z,5.40
2019-01-05T08:01:53.750Z,5.07
2019-01-05T08:05:44.011Z,5.03
2019-01-05T08:09:04.137Z,3.83
2019-01-05T08:12:24.966Z,3.57
2019-01-05T08:15:52.991Z,4.27
2019-01-05T08:19:16.114Z,4.17
2019-01-05T08:23:05.191Z,5.03
2019-01-05T08:26:27.784Z,4.60
2019-01-05T08:29:46.013Z,5.07
2019-01-05T08:33:10.755Z,4.40
2019-01-05T08:36:40.249Z,3.60
2019-01-05T08:40:28.751Z,2.83
2019-01-05T08:44:08.460Z,4.50
2019-01-05T08:47:31.247Z,5.07
2019-01-05T08:51:10.902Z,5.70
2019-01-05T08:54:35.408Z,5.60
2019-01-05T08:58:08.273Z,5.70
2019-01-05T09:01:44.797Z,5.67
2019-01-05T09:05:13.493Z,3.37
2019-01-05T09:08:38.050Z,4.47
2019-01-05T09:12:25.753Z,5.13
2019-01-05T09:15:50.986Z,4.43
2019-01-05T09:19:23.223Z,5.10
2019-01-05T09:22:34.456Z,5.40
2019-01-05T09:26:00.612Z,4.80
2019-01-05T09:29:54.851Z,3.13
2019-01-05T09:33:18.199Z,2.93
2019-01-05T09:37:02.289Z,5.00
2019-01-05T09:40:28.898Z,4.70
2019-01-05T09:44:05.401Z,3.93
2019-01-05T09:47:39.289Z,4.40
2019-01-05T09:51:00.930Z,4.20
2019-01-05T09:54:27.643Z,2.67
2019-01-05T09:57:45.714Z,2.20
2019-01-05T10:01:12.993Z,2.63
2019-01-05T10:04:44.879Z,2.53
2019-01-05T10:08:24.658Z,2.90
2019-01-05T10:11:47.356Z,3.63
2019-01-05T10:15:05.219Z,4.07
2019-01-05T10:18:24.093Z,2.93
2019-01-05T10:21:47.911Z,3.00
2019-01-05T10:25:14.324Z,3.80
2019-01-05T10:29:11.870Z,3.80
2019-01-05T10:32:42.777Z,3.37
2019-01-05T10:36:14.816Z,3.43
2019-01-05T10:39:53.220Z,3.53
2019-01-05T10:43:29.310Z,3.10
2019-01-05T10:47:02.971Z,2.30
2019-01-05T10:50:35.300Z,3.23
2019-01-05T10:54:04.703Z,3.30
2019-01-05T10:57:45.313Z,3.80
2019-01-05T11:00:56.830Z,4.30
2019-01-05T11:04:32.791Z,3.50
2019-01-05T11:08:01.529Z,3.00
2019-01-05T11:11:20.445Z,2.80
2019-01-05T11:14:54.225Z,1.93
2019-01-05T11:18:18.248Z,3.23
2019-01-05T11:21:42.297Z,3.60
2019-01-05T11:25:18.118Z,3.00
2019-01-05T11:28:30.513Z,3.27
2019-01-05T11:31:57.786Z,3.40
2019-01-05T11:35:11.693Z,2.97
2019-01-05T11:38:41.828Z,2.37
2019-01-05T11:42:03.262Z,2.90
2019-01-05T11:45:31.974Z,4.03
2019-01-05T11:48:56.791Z,3.33
2019-01-05T11:52:26.214Z,3.57
2019-01-05T11:56:19.544Z,2.40
2019-01-05T11:59:44.001Z,2.33
2019-01-05T12:03:11.428Z,2.00
2019-01-05T12:06:50.210Z,2.43
2019-01-05T12:10:37.022Z,3.17
2019-01-05T12:13:57.845Z,2.53
2019-01-05T12:17:18.920Z,3.17
2019-01-05T12:20:41.148Z,2.63
2019-01-05T12:24:06.068Z,2.20
2019-01-05T12:27:45.839Z,2.00
2019-01-05T12:31:10.688Z,2.57
2019-01-05T12:34:33.437Z,3.50
2019-01-05T12:38:00.045Z,3.40
2019-01-05T12:41:34.185Z,3.70
2019-01-05T12:44:49.163Z,3.70
2019-01-05T12:48:18.606Z,4.03
2019-01-05T12:51:59.219Z,2.67
2019-01-05T12:55:48.063Z,2.20
2019-01-05T12:59:10.193Z,3.87
2019-01-05T13:02:39.792Z,3.43
2019-01-05T13:06:14.950Z,3.77
2019-01-05T13:09:45.606Z,3.53
2019-01-05T13:13:31.442Z,3.63
2019-01-05T13:16:54.507Z,2.67
2019-01-05T13:20:18.334Z,2.93
2019-01-05T13:23:49.616Z,4.07
2019-01-05T13:27:03.958Z,3.63
2019-01-05T13:30:45.465Z,4.27
2019-01-05T13:34:22.762Z,4.43
2019-01-05T13:37:54.070Z,4.03
2019-01-05T13:41:29.046Z,4.47
2019-01-05T13:45:04.529Z,4.53
2019-01-05T13:48:23.289Z,5.10
2019-01-05T13:51:59.400Z,4.83
2019-01-05T13:54:51.755Z,4.33
2019-01-05T13:57:49.129Z,4.47
2019-01-05T14:00:39.513Z,5.30
2019-01-05T14:03:39.680Z,5.03
2019-01-05T14:06:33.705Z,5.10
2019-01-05T14:09:21.187Z,5.30
2019-01-05T14:12:24.840Z,6.03
2019-01-05T14:15:23.138Z,5.53
2019-01-05T14:18:09.829Z,5.50
2019-01-05T14:20:56.676Z,5.97
2019-01-05T14:24:00.112Z,5.30
2019-01-05T14:27:03.492Z,5.70
2019-01-05T14:29:50.461Z,5.63
2019-01-05T14:32:42.698Z,6.70
2019-01-05T14:35:38.117Z,5.40
2019-01-05T14:38:24.807Z,5.50
2019-01-05T14:41:09.930Z,4.90
2019-01-05T14:44:07.248Z,4.20
2019-01-05T14:47:07.361Z,3.73
2019-01-05T14:49:58.441Z,3.20
2019-01-05T14:52:45.123Z,3.43
2019-01-05T14:55:36.623Z,3.17
2019-01-05T14:58:24.834Z,4.10
2019-01-05T15:01:07.165Z,5.30
2019-01-05T15:04:04.757Z,4.83
2019-01-05T15:06:56.002Z,4.90
2019-01-05T15:09:44.293Z,4.30
2019-01-05T15:12:41.370Z,4.93
2019-01-05T15:15:32.550Z,5.17
2019-01-05T15:18:26.757Z,4.23
2019-01-05T15:21:13.588Z,3.90
2019-01-05T15:24:13.942Z,3.73
2019-01-05T15:27:02.653Z,3.33
2019-01-05T15:29:56.602Z,4.00
2019-01-05T15:33:00.037Z,3.30
2019-01-05T15:35:46.913Z,3.20
2019-01-05T15:38:50.260Z,2.83
2019-01-05T15:41:39.568Z,3.40
2019-01-05T15:44:36.596Z,2.90
2019-01-05T15:47:23.160Z,2.43
2019-01-05T15:50:17.181Z,2.27
2019-01-05T15:53:12.490Z,1.77
2019-01-05T15:56:06.821Z,1.80
2019-01-05T15:58:55.237Z,2.10
2019-01-05T16:01:45.007Z,1.93
2019-01-05T16:04:38.614Z,2.43
2019-01-05T16:07:26.245Z,2.23
2019-01-05T16:10:14.409Z,1.70
2019-01-05T16:13:01.081Z,1.60
2019-01-05T16:15:55.386Z,1.63
2019-01-05T16:18:42.417Z,1.57
2019-01-05T16:21:29.311Z,2.20
2019-01-05T16:24:17.868Z,2.33
2019-01-05T16:27:10.088Z,2.33
2019-01-05T16:29:57.730Z,3.40
2019-01-05T16:32:51.296Z,2.37
2019-01-05T16:35:29.783Z,3.07
2019-01-05T16:38:16.389Z,2.10
2019-01-05T16:41:04.838Z,2.47
2019-01-05T16:43:50.865Z,2.30
2019-01-05T16:46:43.637Z,2.13
2019-01-05T16:49:37.118Z,2.20
2019-01-05T16:52:23.942Z,2.67
2019-01-05T16:55:12.134Z,2.43
2019-01-05T16:58:03.105Z,2.63
2019-01-05T17:00:49.908Z,2.50
2019-01-05T17:03:50.194Z,2.37
2019-01-05T17:06:40.450Z,2.20
2019-01-05T17:09:34.648Z,1.47
2019-01-05T17:12:29.073Z,1.40
2019-01-05T17:15:07.508Z,1.40
2019-01-05T17:17:55.783Z,2.20
2019-01-05T17:20:46.756Z,2.63
2019-01-05T17:23:37.034Z,2.60
2019-01-05T17:26:31.208Z,2.50
2019-01-05T17:29:22.173Z,3.33
2019-01-05T17:32:09.109Z,2.97
2019-01-05T17:34:57.559Z,2.70
2019-01-05T17:37:54.641Z,2.60
2019-01-05T17:40:45.189Z,2.60
2019-01-05T17:43:39.293Z,2.77
2019-01-05T17:46:23.365Z,2.63
2019-01-05T17:49:20.402Z,2.40
2019-01-05T17:52:08.574Z,2.30
2019-01-05T17:54:56.732Z,2.70
2019-01-05T17:57:56.962Z,2.53
2019-01-05T18:00:51.059Z,2.43
2019-01-05T18:03:40.019Z,2.23
2019-01-05T18:06:28.179Z,2.20
2019-01-05T18:09:15.452Z,2.20
2019-01-05T18:12:05.570Z,2.50
2019-01-05T18:14:52.471Z,2.87
2019-01-05T18:17:46.848Z,2.23
2019-01-05T18:20:47.166Z,3.03
2019-01-05T18:23:38.522Z,2.33
2019-01-05T18:26:30.554Z,2.30
2019-01-05T18:29:18.197Z,2.80
2019-01-05T18:32:16.421Z,2.60
2019-01-05T18:35:03.341Z,2.63
2019-01-05T18:38:00.629Z,2.47
2019-01-05T18:40:47.310Z,2.67
2019-01-05T18:43:38.578Z,3.43
2019-01-05T18:46:23.970Z,3.40
2019-01-05T18:49:10.362Z,2.90
2019-01-05T18:51:57.065Z,3.00
2019-01-05T18:54:48.403Z,2.53
2019-01-05T18:57:35.415Z,3.10
2019-01-05T19:00:24.929Z,2.97
2019-01-05T19:03:07.864Z,2.43
2019-01-05T19:06:05.207Z,3.57
2019-01-05T19:08:56.428Z,3.77
2019-01-05T19:11:53.451Z,4.20
2019-01-05T19:14:44.678Z,3.57
2019-01-05T19:17:37.947Z,3.83
2019-01-05T19:20:25.534Z,3.60
2019-01-05T19:23:12.621Z,3.03
2019-01-05T19:25:58.844Z,3.50
2019-01-05T19:29:06.443Z,3.30
2019-01-05T19:32:05.614Z,3.23
2019-01-05T19:34:52.444Z,3.83
2019-01-05T19:37:39.736Z,3.90
2019-01-05T19:40:31.098Z,3.63
2019-01-05T19:43:31.677Z,4.37
2019-01-05T19:46:35.532Z,3.20
2019-01-05T19:49:22.288Z,3.03
2019-01-05T19:52:19.316Z,3.40
2019-01-05T19:55:07.886Z,3.70
2019-01-05T19:57:54.977Z,3.83
2019-01-05T20:00:50.904Z,3.93
2019-01-05T20:03:38.356Z,4.30
2019-01-05T20:06:24.128Z,4.37
2019-01-05T20:09:17.765Z,4.47
2019-01-05T20:12:08.315Z,4.63
2019-01-05T20:14:50.675Z,3.97
2019-01-05T20:17:41.124Z,4.17
2019-01-05T20:20:36.330Z,5.03
2019-01-05T20:23:16.567Z,5.70
2019-01-05T20:26:13.251Z,5.87
2019-01-05T20:28:59.833Z,6.57
2019-01-05T20:31:46.703Z,7.50
2019-01-05T20:34:44.202Z,8.30
2019-01-05T20:37:22.578Z,7.57
2019-01-05T20:40:09.071Z,8.13
2019-01-05T20:43:00.770Z,6.73
2019-01-05T20:45:55.449Z,6.20
2019-01-05T20:48:52.559Z,6.57
2019-01-05T20:51:47.016Z,5.20
2019-01-05T20:54:49.130Z,6.00
2019-01-05T20:57:36.272Z,6.67
2019-01-05T21:00:33.838Z,7.20
2019-01-05T21:03:16.980Z,9.03
2019-01-05T21:06:08.082Z,8.57
2019-01-05T21:08:54.962Z,8.60
2019-01-05T21:11:37.967Z,9.13
2019-01-05T21:14:42.904Z,8.40
2019-01-05T21:17:36.935Z,9.90
2019-01-05T21:20:23.633Z,8.53
2019-01-05T21:23:20.809Z,7.80
2019-01-05T21:26:07.637Z,6.80
2019-01-05T21:29:16.265Z,7.43
2019-01-05T21:32:02.643Z,7.90
2019-01-05T21:34:46.999Z,8.27
2019-01-05T21:37:33.607Z,8.40
2019-01-05T21:40:39.819Z,8.47
2019-01-05T21:43:28.008Z,6.47
2019-01-05T21:46:15.843Z,6.90
2019-01-05T21:49:03.870Z,5.00
2019-01-05T21:51:52.131Z,6.47
2019-01-05T21:54:38.755Z,7.50
2019-01-05T21:57:17.829Z,6.33
2019-01-05T22:00:05.628Z,8.03
2019-01-05T22:02:48.868Z,8.80
2019-01-05T22:05:43.198Z,8.40
2019-01-05T22:08:31.169Z,7.60
2019-01-05T22:11:19.662Z,7.90
2019-01-05T22:14:05.578Z,7.13
2019-01-05T22:17:08.043Z,7.87
2019-01-05T22:20:03.828Z,7.80
2019-01-05T22:22:50.510Z,8.33
2019-01-05T22:25:41.936Z,8.70
2019-01-05T22:28:24.674Z,8.40
2019-01-05T22:31:24.723Z,8.47
2019-01-05T22:34:11.524Z,9.07
2019-01-05T22:37:05.460Z,8.70
2019-01-05T22:39:52.608Z,8.97
2019-01-05T22:42:57.075Z,9.30
2019-01-05T22:45:45.040Z,8.80
2019-01-05T22:48:38.890Z,7.60
2019-01-05T22:51:37.049Z,7.87
2019-01-05T22:54:24.071Z,7.10
2019-01-05T22:57:15.315Z,8.27
2019-01-05T23:00:06.265Z,7.50
2019-01-05T23:02:55.232Z,10.40
2019-01-05T23:05:43.667Z,12.07
2019-01-05T23:08:44.759Z,15.30
2019-01-05T23:11:30.022Z,15.23
2019-01-05T23:14:21.018Z,15.70
2019-01-05T23:17:07.628Z,16.00
2019-01-05T23:19:54.629Z,14.53
2019-01-05T23:22:48.575Z,15.53
2019-01-05T23:25:35.466Z,14.17
2019-01-05T23:28:27.337Z,14.50
2019-01-05T23:31:30.561Z,14.93
2019-01-05T23:34:24.574Z,13.70
2019-01-05T23:37:15.577Z,13.63
2019-01-05T23:40:02.646Z,12.97
2019-01-05T23:42:52.514Z,13.67
2019-01-05T23:45:45.257Z,12.43
2019-01-05T23:48:43.631Z,10.10
2019-01-05T23:51:30.504Z,8.27
2019-01-05T23:54:25.394Z,8.43
2019-01-05T23:57:16.578Z,9.20
